sensor_id;sensor_type;location;lat;lon;timestamp;P1;durP1;ratioP1;P2;durP2;ratioP2
64714;SDS011;51144;53.002;6.506;2023-03-21T00:00:17;33.10;;;17.02;;
64714;SDS011;51144;53.002;6.506;2023-03-21T00:02:43;36.42;;;17.50;;
64714;SDS011;51144;53.002;6.506;2023-03-21T00:05:08;35.88;;;18.27;;
64714;SDS011;51144;53.002;6.506;2023-03-21T00:07:34;40.58;;;18.83;;
64714;SDS011;51144;53.002;6.506;2023-03-21T00:10:00;50.58;;;21.42;;
64714;SDS011;51144;53.002;6.506;2023-03-21T00:12:25;62.22;;;22.92;;
64714;SDS011;51144;53.002;6.506;2023-03-21T00:14:51;75.30;;;25.60;;
64714;SDS011;51144;53.002;6.506;2023-03-21T00:17:18;77.97;;;26.98;;
64714;SDS011;51144;53.002;6.506;2023-03-21T00:19:49;97.93;;;31.40;;
64714;SDS011;51144;53.002;6.506;2023-03-21T00:22:18;99.40;;;31.70;;
64714;SDS011;51144;53.002;6.506;2023-03-21T00:24:44;93.50;;;31.92;;
64714;SDS011;51144;53.002;6.506;2023-03-21T00:27:09;88.18;;;31.95;;
64714;SDS011;51144;53.002;6.506;2023-03-21T00:29:35;90.95;;;34.80;;
64714;SDS011;51144;53.002;6.506;2023-03-21T00:32:01;97.78;;;35.47;;
64714;SDS011;51144;53.002;6.506;2023-03-21T00:34:26;95.65;;;34.85;;
64714;SDS011;51144;53.002;6.506;2023-03-21T00:36:52;95.10;;;35.42;;
64714;SDS011;51144;53.002;6.506;2023-03-21T00:39:17;85.78;;;34.40;;
64714;SDS011;51144;53.002;6.506;2023-03-21T00:41:43;87.05;;;34.45;;
64714;SDS011;51144;53.002;6.506;2023-03-21T00:44:12;105.05;;;36.47;;
64714;SDS011;51144;53.002;6.506;2023-03-21T00:46:39;104.50;;;37.97;;
64714;SDS011;51144;53.002;6.506;2023-03-21T00:49:06;107.22;;;37.88;;
64714;SDS011;51144;53.002;6.506;2023-03-21T00:51:31;123.70;;;39.78;;
64714;SDS011;51144;53.002;6.506;2023-03-21T00:53:57;119.95;;;40.45;;
64714;SDS011;51144;53.002;6.506;2023-03-21T00:56:23;116.22;;;36.35;;
64714;SDS011;51144;53.002;6.506;2023-03-21T00:58:49;98.00;;;37.05;;
64714;SDS011;51144;53.002;6.506;2023-03-21T01:01:15;97.32;;;36.28;;
64714;SDS011;51144;53.002;6.506;2023-03-21T01:03:41;89.07;;;33.85;;
64714;SDS011;51144;53.002;6.506;2023-03-21T01:06:08;100.53;;;38.08;;
64714;SDS011;51144;53.002;6.506;2023-03-21T01:08:38;118.60;;;37.03;;
64714;SDS011;51144;53.002;6.506;2023-03-21T01:11:13;93.10;;;35.10;;
64714;SDS011;51144;53.002;6.506;2023-03-21T01:13:41;108.28;;;36.15;;
64714;SDS011;51144;53.002;6.506;2023-03-21T01:16:07;86.18;;;34.55;;
64714;SDS011;51144;53.002;6.506;2023-03-21T01:18:35;89.30;;;34.33;;
64714;SDS011;51144;53.002;6.506;2023-03-21T01:21:04;80.88;;;34.03;;
64714;SDS011;51144;53.002;6.506;2023-03-21T01:23:32;67.07;;;31.98;;
64714;SDS011;51144;53.002;6.506;2023-03-21T01:25:57;78.07;;;33.42;;
64714;SDS011;51144;53.002;6.506;2023-03-21T01:28:27;74.80;;;33.13;;
64714;SDS011;51144;53.002;6.506;2023-03-21T01:30:53;71.22;;;32.03;;
64714;SDS011;51144;53.002;6.506;2023-03-21T01:33:19;72.28;;;33.33;;
64714;SDS011;51144;53.002;6.506;2023-03-21T01:35:46;77.93;;;34.10;;
64714;SDS011;51144;53.002;6.506;2023-03-21T01:38:12;92.40;;;35.08;;
64714;SDS011;51144;53.002;6.506;2023-03-21T01:40:38;71.93;;;33.78;;
64714;SDS011;51144;53.002;6.506;2023-03-21T01:43:12;80.55;;;33.28;;
64714;SDS011;51144;53.002;6.506;2023-03-21T01:48:45;72.00;;;33.72;;
64714;SDS011;51144;53.002;6.506;2023-03-21T01:51:18;70.07;;;33.88;;
64714;SDS011;51144;53.002;6.506;2023-03-21T01:53:45;71.97;;;32.50;;
64714;SDS011;51144;53.002;6.506;2023-03-21T01:56:23;78.25;;;35.65;;
64714;SDS011;51144;53.002;6.506;2023-03-21T01:58:52;70.05;;;34.42;;
64714;SDS011;51144;53.002;6.506;2023-03-21T02:01:21;84.85;;;36.45;;
64714;SDS011;51144;53.002;6.506;2023-03-21T02:03:47;83.05;;;37.30;;
64714;SDS011;51144;53.002;6.506;2023-03-21T02:06:34;78.05;;;35.38;;
64714;SDS011;51144;53.002;6.506;2023-03-21T02:09:05;76.85;;;35.00;;
64714;SDS011;51144;53.002;6.506;2023-03-21T02:11:34;79.35;;;36.97;;
64714;SDS011;51144;53.002;6.506;2023-03-21T02:14:01;75.78;;;34.33;;
64714;SDS011;51144;53.002;6.506;2023-03-21T02:16:40;63.30;;;31.25;;
64714;SDS011;51144;53.002;6.506;2023-03-21T02:33:06;67.05;;;28.67;;
64714;SDS011;51144;53.002;6.506;2023-03-21T02:38:33;57.08;;;27.77;;
64714;SDS011;51144;53.002;6.506;2023-03-21T02:41:16;62.33;;;28.58;;
64714;SDS011;51144;53.002;6.506;2023-03-21T02:48:48;53.15;;;26.52;;
64714;SDS011;51144;53.002;6.506;2023-03-21T02:51:21;52.40;;;25.15;;
64714;SDS011;51144;53.002;6.506;2023-03-21T02:53:52;53.35;;;24.75;;
64714;SDS011;51144;53.002;6.506;2023-03-21T02:56:23;43.38;;;23.52;;
64714;SDS011;51144;53.002;6.506;2023-03-21T02:58:50;43.42;;;23.83;;
64714;SDS011;51144;53.002;6.506;2023-03-21T03:01:17;37.58;;;21.65;;
64714;SDS011;51144;53.002;6.506;2023-03-21T03:03:43;41.50;;;21.98;;
64714;SDS011;51144;53.002;6.506;2023-03-21T03:06:19;35.60;;;21.30;;
64714;SDS011;51144;53.002;6.506;2023-03-21T03:09:27;37.05;;;20.58;;
64714;SDS011;51144;53.002;6.506;2023-03-21T03:12:16;34.08;;;20.27;;
64714;SDS011;51144;53.002;6.506;2023-03-21T03:18:00;34.10;;;20.10;;
64714;SDS011;51144;53.002;6.506;2023-03-21T03:20:59;32.83;;;18.73;;
64714;SDS011;51144;53.002;6.506;2023-03-21T03:23:36;32.38;;;19.00;;
64714;SDS011;51144;53.002;6.506;2023-03-21T03:26:11;27.27;;;18.58;;
64714;SDS011;51144;53.002;6.506;2023-03-21T03:28:52;30.88;;;19.13;;
64714;SDS011;51144;53.002;6.506;2023-03-21T03:31:24;38.95;;;20.20;;
64714;SDS011;51144;53.002;6.506;2023-03-21T03:33:56;32.20;;;18.58;;
64714;SDS011;51144;53.002;6.506;2023-03-21T03:36:28;33.13;;;18.67;;
64714;SDS011;51144;53.002;6.506;2023-03-21T03:39:04;36.72;;;18.40;;
64714;SDS011;51144;53.002;6.506;2023-03-21T03:41:34;29.15;;;18.02;;
64714;SDS011;51144;53.002;6.506;2023-03-21T03:44:09;29.13;;;17.65;;
64714;SDS011;51144;53.002;6.506;2023-03-21T03:46:38;28.00;;;16.90;;
64714;SDS011;51144;53.002;6.506;2023-03-21T03:49:12;27.35;;;17.55;;
64714;SDS011;51144;53.002;6.506;2023-03-21T03:54:29;27.27;;;18.30;;
64714;SDS011;51144;53.002;6.506;2023-03-21T03:57:00;29.20;;;17.40;;
64714;SDS011;51144;53.002;6.506;2023-03-21T03:59:26;30.88;;;18.65;;
64714;SDS011;51144;53.002;6.506;2023-03-21T04:01:52;25.95;;;18.40;;
64714;SDS011;51144;53.002;6.506;2023-03-21T04:04:17;31.23;;;19.63;;
64714;SDS011;51144;53.002;6.506;2023-03-21T04:06:46;34.20;;;19.23;;
64714;SDS011;51144;53.002;6.506;2023-03-21T04:09:16;32.78;;;19.90;;
64714;SDS011;51144;53.002;6.506;2023-03-21T04:11:42;33.55;;;18.83;;
64714;SDS011;51144;53.002;6.506;2023-03-21T04:14:08;34.67;;;19.98;;
64714;SDS011;51144;53.002;6.506;2023-03-21T04:16:34;37.28;;;20.15;;
64714;SDS011;51144;53.002;6.506;2023-03-21T04:19:00;34.08;;;19.38;;
64714;SDS011;51144;53.002;6.506;2023-03-21T04:21:26;37.80;;;20.38;;
64714;SDS011;51144;53.002;6.506;2023-03-21T04:23:53;34.47;;;18.63;;
64714;SDS011;51144;53.002;6.506;2023-03-21T04:26:19;34.88;;;18.60;;
64714;SDS011;51144;53.002;6.506;2023-03-21T04:28:46;30.02;;;18.00;;
64714;SDS011;51144;53.002;6.506;2023-03-21T04:31:13;37.45;;;19.52;;
64714;SDS011;51144;53.002;6.506;2023-03-21T04:33:39;29.60;;;17.05;;
64714;SDS011;51144;53.002;6.506;2023-03-21T04:36:05;30.45;;;18.58;;
64714;SDS011;51144;53.002;6.506;2023-03-21T04:38:33;32.08;;;17.67;;
64714;SDS011;51144;53.002;6.506;2023-03-21T04:41:00;34.40;;;18.42;;
64714;SDS011;51144;53.002;6.506;2023-03-21T04:43:27;31.42;;;18.05;;
64714;SDS011;51144;53.002;6.506;2023-03-21T04:45:52;34.03;;;18.08;;
64714;SDS011;51144;53.002;6.506;2023-03-21T04:48:19;36.20;;;18.00;;
64714;SDS011;51144;53.002;6.506;2023-03-21T04:50:48;36.08;;;17.88;;
64714;SDS011;51144;53.002;6.506;2023-03-21T04:53:14;27.85;;;17.55;;
64714;SDS011;51144;53.002;6.506;2023-03-21T04:55:40;27.40;;;16.55;;
64714;SDS011;51144;53.002;6.506;2023-03-21T04:58:06;25.95;;;16.15;;
64714;SDS011;51144;53.002;6.506;2023-03-21T05:00:32;31.67;;;17.48;;
64714;SDS011;51144;53.002;6.506;2023-03-21T05:03:02;31.25;;;17.73;;
64714;SDS011;51144;53.002;6.506;2023-03-21T05:05:33;35.05;;;19.25;;
64714;SDS011;51144;53.002;6.506;2023-03-21T05:08:00;30.73;;;18.05;;
64714;SDS011;51144;53.002;6.506;2023-03-21T05:10:25;34.45;;;19.77;;
64714;SDS011;51144;53.002;6.506;2023-03-21T05:12:51;37.45;;;19.85;;
64714;SDS011;51144;53.002;6.506;2023-03-21T05:15:16;36.80;;;20.80;;
64714;SDS011;51144;53.002;6.506;2023-03-21T05:17:42;36.70;;;20.30;;
64714;SDS011;51144;53.002;6.506;2023-03-21T05:20:09;39.47;;;21.90;;
64714;SDS011;51144;53.002;6.506;2023-03-21T05:22:35;40.05;;;21.80;;
64714;SDS011;51144;53.002;6.506;2023-03-21T05:25:07;40.58;;;23.25;;
64714;SDS011;51144;53.002;6.506;2023-03-21T05:27:34;41.28;;;24.30;;
64714;SDS011;51144;53.002;6.506;2023-03-21T05:30:01;45.58;;;25.60;;
64714;SDS011;51144;53.002;6.506;2023-03-21T05:32:29;51.08;;;25.60;;
64714;SDS011;51144;53.002;6.506;2023-03-21T05:34:55;46.38;;;26.25;;
64714;SDS011;51144;53.002;6.506;2023-03-21T05:37:21;49.92;;;26.60;;
64714;SDS011;51144;53.002;6.506;2023-03-21T05:39:47;46.55;;;26.40;;
64714;SDS011;51144;53.002;6.506;2023-03-21T05:42:13;43.53;;;26.88;;
64714;SDS011;51144;53.002;6.506;2023-03-21T05:44:39;41.30;;;26.13;;
64714;SDS011;51144;53.002;6.506;2023-03-21T05:47:05;44.22;;;26.23;;
64714;SDS011;51144;53.002;6.506;2023-03-21T05:49:31;45.63;;;26.17;;
64714;SDS011;51144;53.002;6.506;2023-03-21T05:51:57;45.83;;;27.50;;
64714;SDS011;51144;53.002;6.506;2023-03-21T05:54:22;44.58;;;25.88;;
64714;SDS011;51144;53.002;6.506;2023-03-21T05:56:48;45.90;;;24.95;;
64714;SDS011;51144;53.002;6.506;2023-03-21T05:59:14;39.97;;;25.17;;
64714;SDS011;51144;53.002;6.506;2023-03-21T06:01:40;42.05;;;25.90;;
64714;SDS011;51144;53.002;6.506;2023-03-21T06:04:06;41.75;;;25.55;;
64714;SDS011;51144;53.002;6.506;2023-03-21T06:06:32;42.22;;;26.02;;
64714;SDS011;51144;53.002;6.506;2023-03-21T06:08:57;67.28;;;29.17;;
64714;SDS011;51144;53.002;6.506;2023-03-21T06:11:31;44.30;;;25.70;;
64714;SDS011;51144;53.002;6.506;2023-03-21T06:14:00;47.28;;;27.20;;
64714;SDS011;51144;53.002;6.506;2023-03-21T06:16:26;40.13;;;25.42;;
64714;SDS011;51144;53.002;6.506;2023-03-21T06:18:53;42.22;;;26.48;;
64714;SDS011;51144;53.002;6.506;2023-03-21T06:21:19;45.42;;;26.67;;
64714;SDS011;51144;53.002;6.506;2023-03-21T06:23:45;44.15;;;27.75;;
64714;SDS011;51144;53.002;6.506;2023-03-21T06:26:12;63.03;;;28.85;;
64714;SDS011;51144;53.002;6.506;2023-03-21T06:28:38;46.70;;;28.08;;
64714;SDS011;51144;53.002;6.506;2023-03-21T06:31:03;48.40;;;27.27;;
64714;SDS011;51144;53.002;6.506;2023-03-21T06:33:29;50.10;;;27.75;;
64714;SDS011;51144;53.002;6.506;2023-03-21T06:35:56;52.13;;;28.08;;
64714;SDS011;51144;53.002;6.506;2023-03-21T06:38:23;46.22;;;27.13;;
64714;SDS011;51144;53.002;6.506;2023-03-21T06:40:50;47.28;;;27.05;;
64714;SDS011;51144;53.002;6.506;2023-03-21T06:43:16;44.28;;;25.42;;
64714;SDS011;51144;53.002;6.506;2023-03-21T06:45:42;50.80;;;27.60;;
64714;SDS011;51144;53.002;6.506;2023-03-21T06:48:08;53.60;;;28.20;;
64714;SDS011;51144;53.002;6.506;2023-03-21T06:50:34;41.92;;;24.88;;
64714;SDS011;51144;53.002;6.506;2023-03-21T06:53:00;42.75;;;25.73;;
64714;SDS011;51144;53.002;6.506;2023-03-21T06:55:26;39.67;;;24.83;;
64714;SDS011;51144;53.002;6.506;2023-03-21T06:57:53;40.53;;;24.40;;
64714;SDS011;51144;53.002;6.506;2023-03-21T07:00:19;35.38;;;22.98;;
64714;SDS011;51144;53.002;6.506;2023-03-21T07:02:46;30.10;;;19.77;;
64714;SDS011;51144;53.002;6.506;2023-03-21T07:05:12;33.42;;;20.85;;
64714;SDS011;51144;53.002;6.506;2023-03-21T07:07:38;27.70;;;19.55;;
64714;SDS011;51144;53.002;6.506;2023-03-21T07:10:05;35.80;;;21.25;;
64714;SDS011;51144;53.002;6.506;2023-03-21T07:12:31;34.15;;;21.58;;
64714;SDS011;51144;53.002;6.506;2023-03-21T07:14:58;32.10;;;21.00;;
64714;SDS011;51144;53.002;6.506;2023-03-21T07:17:25;28.13;;;19.45;;
64714;SDS011;51144;53.002;6.506;2023-03-21T07:19:51;33.45;;;20.23;;
64714;SDS011;51144;53.002;6.506;2023-03-21T07:22:16;31.38;;;19.98;;
64714;SDS011;51144;53.002;6.506;2023-03-21T07:24:42;30.50;;;19.60;;
64714;SDS011;51144;53.002;6.506;2023-03-21T07:27:08;26.77;;;17.92;;
64714;SDS011;51144;53.002;6.506;2023-03-21T07:29:33;21.85;;;16.67;;
64714;SDS011;51144;53.002;6.506;2023-03-21T07:31:59;23.85;;;16.45;;
64714;SDS011;51144;53.002;6.506;2023-03-21T07:34:25;29.50;;;17.35;;
64714;SDS011;51144;53.002;6.506;2023-03-21T07:36:55;20.63;;;15.65;;
64714;SDS011;51144;53.002;6.506;2023-03-21T07:41:47;22.95;;;14.57;;
64714;SDS011;51144;53.002;6.506;2023-03-21T07:44:13;22.33;;;14.10;;
64714;SDS011;51144;53.002;6.506;2023-03-21T07:46:39;15.80;;;11.95;;
64714;SDS011;51144;53.002;6.506;2023-03-21T07:49:05;14.25;;;10.70;;
64714;SDS011;51144;53.002;6.506;2023-03-21T07:51:33;12.95;;;10.73;;
64714;SDS011;51144;53.002;6.506;2023-03-21T07:53:59;13.13;;;9.30;;
64714;SDS011;51144;53.002;6.506;2023-03-21T07:56:26;10.13;;;8.98;;
64714;SDS011;51144;53.002;6.506;2023-03-21T08:01:18;11.70;;;9.98;;
64714;SDS011;51144;53.002;6.506;2023-03-21T08:03:44;17.55;;;11.48;;
64714;SDS011;51144;53.002;6.506;2023-03-21T08:06:09;15.32;;;12.80;;
64714;SDS011;51144;53.002;6.506;2023-03-21T08:08:35;16.67;;;13.45;;
64714;SDS011;51144;53.002;6.506;2023-03-21T08:11:02;20.75;;;15.98;;
64714;SDS011;51144;53.002;6.506;2023-03-21T08:13:28;17.88;;;14.68;;
64714;SDS011;51144;53.002;6.506;2023-03-21T08:15:54;20.27;;;15.18;;
64714;SDS011;51144;53.002;6.506;2023-03-21T08:18:19;18.23;;;14.63;;
64714;SDS011;51144;53.002;6.506;2023-03-21T08:20:49;19.85;;;16.20;;
64714;SDS011;51144;53.002;6.506;2023-03-21T15:17:22;11.93;;;5.45;;
64714;SDS011;51144;53.002;6.506;2023-03-21T15:19:49;9.18;;;5.55;;
64714;SDS011;51144;53.002;6.506;2023-03-21T15:22:18;12.52;;;6.75;;
64714;SDS011;51144;53.002;6.506;2023-03-21T15:24:51;10.65;;;5.40;;
64714;SDS011;51144;53.002;6.506;2023-03-21T15:27:23;12.13;;;6.13;;
64714;SDS011;51144;53.002;6.506;2023-03-21T21:30:36;18.35;;;14.85;;
64714;SDS011;51144;53.002;6.506;2023-03-21T21:33:03;18.10;;;15.00;;
64714;SDS011;51144;53.002;6.506;2023-03-21T21:35:29;19.38;;;14.60;;
64714;SDS011;51144;53.002;6.506;2023-03-21T21:37:57;16.50;;;14.30;;
64714;SDS011;51144;53.002;6.506;2023-03-21T21:40:23;17.45;;;15.60;;
64714;SDS011;51144;53.002;6.506;2023-03-21T21:42:49;17.17;;;14.48;;
64714;SDS011;51144;53.002;6.506;2023-03-21T21:45:15;19.92;;;14.07;;
64714;SDS011;51144;53.002;6.506;2023-03-21T21:47:43;16.65;;;14.40;;
64714;SDS011;51144;53.002;6.506;2023-03-21T21:50:10;17.75;;;14.73;;
64714;SDS011;51144;53.002;6.506;2023-03-21T21:52:36;16.50;;;14.95;;
64714;SDS011;51144;53.002;6.506;2023-03-21T21:55:02;19.27;;;16.33;;
64714;SDS011;51144;53.002;6.506;2023-03-21T21:57:29;19.55;;;17.33;;
64714;SDS011;51144;53.002;6.506;2023-03-21T21:59:58;18.25;;;16.58;;
64714;SDS011;51144;53.002;6.506;2023-03-21T22:02:26;20.92;;;18.42;;
64714;SDS011;51144;53.002;6.506;2023-03-21T22:04:53;20.80;;;18.60;;
64714;SDS011;51144;53.002;6.506;2023-03-21T22:07:19;19.50;;;17.02;;
64714;SDS011;51144;53.002;6.506;2023-03-21T22:09:46;21.65;;;19.25;;
64714;SDS011;51144;53.002;6.506;2023-03-21T22:12:11;21.08;;;19.08;;
64714;SDS011;51144;53.002;6.506;2023-03-21T22:14:37;24.70;;;20.10;;
64714;SDS011;51144;53.002;6.506;2023-03-21T22:17:03;21.02;;;18.85;;
64714;SDS011;51144;53.002;6.506;2023-03-21T22:19:29;24.08;;;19.40;;
64714;SDS011;51144;53.002;6.506;2023-03-21T22:21:55;21.70;;;19.67;;
64714;SDS011;51144;53.002;6.506;2023-03-21T22:24:22;21.70;;;19.50;;
64714;SDS011;51144;53.002;6.506;2023-03-21T22:26:51;22.42;;;19.40;;
64714;SDS011;51144;53.002;6.506;2023-03-21T22:29:22;21.48;;;19.20;;
64714;SDS011;51144;53.002;6.506;2023-03-21T22:31:49;21.65;;;18.73;;
64714;SDS011;51144;53.002;6.506;2023-03-21T22:34:18;19.70;;;17.42;;
64714;SDS011;51144;53.002;6.506;2023-03-21T22:36:47;19.20;;;17.27;;
64714;SDS011;51144;53.002;6.506;2023-03-21T22:39:14;19.52;;;17.23;;
64714;SDS011;51144;53.002;6.506;2023-03-21T22:41:44;19.48;;;16.02;;
64714;SDS011;51144;53.002;6.506;2023-03-21T22:44:10;18.00;;;15.60;;
64714;SDS011;51144;53.002;6.506;2023-03-21T22:46:36;18.45;;;16.55;;
64714;SDS011;51144;53.002;6.506;2023-03-21T22:49:01;18.88;;;17.00;;
64714;SDS011;51144;53.002;6.506;2023-03-21T22:51:28;18.92;;;16.92;;
64714;SDS011;51144;53.002;6.506;2023-03-21T22:53:53;21.45;;;16.55;;
64714;SDS011;51144;53.002;6.506;2023-03-21T22:56:19;18.48;;;15.40;;
64714;SDS011;51144;53.002;6.506;2023-03-21T22:58:45;20.55;;;16.60;;
64714;SDS011;51144;53.002;6.506;2023-03-21T23:01:10;18.05;;;15.73;;
64714;SDS011;51144;53.002;6.506;2023-03-21T23:03:36;17.10;;;15.15;;
64714;SDS011;51144;53.002;6.506;2023-03-21T23:06:02;18.33;;;14.80;;
64714;SDS011;51144;53.002;6.506;2023-03-21T23:08:28;17.73;;;14.85;;
64714;SDS011;51144;53.002;6.506;2023-03-21T23:10:54;16.20;;;14.60;;
64714;SDS011;51144;53.002;6.506;2023-03-21T23:13:20;15.75;;;13.98;;
64714;SDS011;51144;53.002;6.506;2023-03-21T23:15:50;14.25;;;12.85;;
64714;SDS011;51144;53.002;6.506;2023-03-21T23:18:16;16.58;;;13.25;;
64714;SDS011;51144;53.002;6.506;2023-03-21T23:20:42;16.95;;;11.70;;
64714;SDS011;51144;53.002;6.506;2023-03-21T23:23:07;14.85;;;10.80;;
64714;SDS011;51144;53.002;6.506;2023-03-21T23:25:33;17.55;;;9.93;;
64714;SDS011;51144;53.002;6.506;2023-03-21T23:28:01;12.88;;;10.00;;
64714;SDS011;51144;53.002;6.506;2023-03-21T23:30:27;14.13;;;9.10;;
64714;SDS011;51144;53.002;6.506;2023-03-21T23:32:53;16.35;;;10.15;;
64714;SDS011;51144;53.002;6.506;2023-03-21T23:35:20;13.52;;;8.45;;
64714;SDS011;51144;53.002;6.506;2023-03-21T23:37:45;14.45;;;8.95;;
64714;SDS011;51144;53.002;6.506;2023-03-21T23:40:16;13.48;;;8.63;;
64714;SDS011;51144;53.002;6.506;2023-03-21T23:42:43;13.95;;;8.02;;
64714;SDS011;51144;53.002;6.506;2023-03-21T23:45:09;17.05;;;8.25;;
64714;SDS011;51144;53.002;6.506;2023-03-21T23:47:34;13.73;;;7.53;;
64714;SDS011;51144;53.002;6.506;2023-03-21T23:50:00;13.73;;;7.72;;
64714;SDS011;51144;53.002;6.506;2023-03-21T23:52:26;13.20;;;7.28;;
64714;SDS011;51144;53.002;6.506;2023-03-21T23:54:51;14.43;;;7.13;;
64714;SDS011;51144;53.002;6.506;2023-03-21T23:57:17;11.88;;;6.22;;
64714;SDS011;51144;53.002;6.506;2023-03-21T23:59:43;14.15;;;6.57;;
